createdAt,value
2023-06-25T00:00:21.003Z,452.00
2023-06-25T00:01:21.075Z,452.00
2023-06-25T00:02:21.116Z,452.00
2023-06-25T00:03:21.125Z,454.00
2023-06-25T00:04:21.117Z,458.00
2023-06-25T00:05:21.121Z,458.00
2023-06-25T00:06:21.138Z,457.00
2023-06-25T00:07:21.323Z,455.00
2023-06-25T00:08:21.209Z,457.00
2023-06-25T00:09:21.216Z,456.00
2023-06-25T00:10:21.284Z,454.00
2023-06-25T00:11:21.282Z,455.00
2023-06-25T00:12:21.319Z,453.00
2023-06-25T00:13:21.380Z,452.00
2023-06-25T00:14:21.386Z,451.00
2023-06-25T00:15:21.447Z,454.00
2023-06-25T00:16:21.468Z,457.00
2023-06-25T00:17:21.511Z,458.00
2023-06-25T00:18:21.533Z,457.00
2023-06-25T00:19:21.587Z,456.00
2023-06-25T00:20:21.618Z,456.00
2023-06-25T00:21:21.641Z,455.00
2023-06-25T00:22:21.654Z,455.00
2023-06-25T00:23:21.710Z,456.00
2023-06-25T00:24:21.756Z,457.00
2023-06-25T00:25:21.766Z,457.00
2023-06-25T00:26:21.800Z,455.00
2023-06-25T00:27:21.828Z,455.00
2023-06-25T00:28:21.905Z,456.00
2023-06-25T00:29:21.944Z,457.00
2023-06-25T00:30:23.453Z,453.00
2023-06-25T00:31:22.037Z,452.00
2023-06-25T00:32:22.076Z,453.00
2023-06-25T00:33:22.112Z,452.00
2023-06-25T00:34:22.139Z,454.00
2023-06-25T00:35:22.187Z,452.00
2023-06-25T00:36:22.356Z,451.00
2023-06-25T00:37:22.282Z,450.00
2023-06-25T00:38:22.323Z,451.00
2023-06-25T00:39:22.348Z,452.00
2023-06-25T00:40:22.373Z,453.00
2023-06-25T00:41:22.457Z,452.00
2023-06-25T00:42:24.525Z,451.00
2023-06-25T00:43:22.864Z,451.00
2023-06-25T00:44:22.487Z,451.00
2023-06-25T00:45:22.468Z,451.00
2023-06-25T00:46:22.477Z,450.00
2023-06-25T00:47:22.493Z,450.00
2023-06-25T00:48:22.454Z,450.00
2023-06-25T00:49:22.453Z,450.00
2023-06-25T00:50:22.468Z,449.00
2023-06-25T00:51:22.445Z,450.00
2023-06-25T00:52:22.436Z,451.00
2023-06-25T00:53:22.452Z,451.00
2023-06-25T00:54:22.430Z,451.00
2023-06-25T00:55:22.421Z,450.00
2023-06-25T00:56:22.402Z,449.00
2023-06-25T00:57:22.391Z,448.00
2023-06-25T00:58:22.417Z,447.00
2023-06-25T00:59:22.383Z,444.00
2023-06-25T01:00:22.378Z,443.00
2023-06-25T01:01:22.371Z,444.00
2023-06-25T01:02:22.541Z,445.00
2023-06-25T01:03:22.425Z,446.00
2023-06-25T01:04:22.356Z,448.00
2023-06-25T01:05:22.332Z,446.00
2023-06-25T01:06:22.372Z,446.00
2023-06-25T01:07:22.405Z,449.00
2023-06-25T01:08:22.320Z,447.00
2023-06-25T01:09:22.342Z,451.00
2023-06-25T01:10:22.292Z,450.00
2023-06-25T01:11:22.317Z,455.00
2023-06-25T01:12:22.307Z,453.00
2023-06-25T01:13:22.311Z,455.00
2023-06-25T01:14:22.270Z,453.00
2023-06-25T01:15:22.282Z,455.00
2023-06-25T01:16:22.310Z,456.00
2023-06-25T01:17:22.408Z,455.00
2023-06-25T01:18:22.475Z,452.00
2023-06-25T01:19:22.488Z,452.00
2023-06-25T01:20:22.537Z,455.00
2023-06-25T01:21:22.628Z,453.00
2023-06-25T01:22:22.675Z,455.00
2023-06-25T01:23:22.754Z,454.00
2023-06-25T01:24:22.816Z,453.00
2023-06-25T01:25:22.838Z,454.00
2023-06-25T01:26:22.930Z,454.00
2023-06-25T01:27:22.984Z,454.00
2023-06-25T01:28:23.046Z,455.00
2023-06-25T01:29:23.150Z,456.00
2023-06-25T01:30:23.187Z,455.00
2023-06-25T01:31:23.300Z,455.00
2023-06-25T01:32:23.344Z,456.00
2023-06-25T01:33:23.374Z,457.00
2023-06-25T01:34:23.444Z,454.00
2023-06-25T01:35:23.491Z,453.00
2023-06-25T01:36:23.530Z,453.00
2023-06-25T01:37:23.580Z,451.00
2023-06-25T01:38:23.652Z,451.00
2023-06-25T01:39:23.711Z,452.00
2023-06-25T01:40:23.759Z,450.00
2023-06-25T01:41:23.810Z,449.00
2023-06-25T01:42:23.833Z,448.00
2023-06-25T01:43:23.904Z,450.00
2023-06-25T01:44:23.988Z,450.00
2023-06-25T01:45:24.086Z,453.00
2023-06-25T01:46:24.137Z,455.00
2023-06-25T01:47:24.187Z,455.00
2023-06-25T01:48:24.207Z,453.00
2023-06-25T01:49:31.809Z,451.00
2023-06-25T01:50:25.264Z,454.00
2023-06-25T01:51:24.232Z,455.00
2023-06-25T01:52:24.258Z,452.00
2023-06-25T01:53:24.245Z,451.00
2023-06-25T01:54:24.216Z,450.00
2023-06-25T01:55:24.204Z,450.00
2023-06-25T01:56:24.189Z,450.00
2023-06-25T01:57:24.214Z,450.00
2023-06-25T01:58:24.235Z,451.00
2023-06-25T01:59:24.209Z,452.00
2023-06-25T02:00:24.285Z,451.00
2023-06-25T02:01:24.360Z,453.00
2023-06-25T02:02:24.453Z,454.00
2023-06-25T02:03:24.537Z,455.00
2023-06-25T02:04:24.565Z,457.00
2023-06-25T02:05:24.635Z,459.00
2023-06-25T02:06:24.677Z,457.00
2023-06-25T02:07:24.757Z,457.00
2023-06-25T02:08:24.758Z,456.00
2023-06-25T02:09:24.840Z,455.00
2023-06-25T02:10:24.869Z,457.00
2023-06-25T02:11:24.894Z,456.00
2023-06-25T02:12:24.984Z,454.00
2023-06-25T02:13:25.074Z,453.00
2023-06-25T02:14:25.159Z,456.00
2023-06-25T02:15:25.218Z,453.00
2023-06-25T02:16:25.317Z,452.00
2023-06-25T02:17:25.335Z,450.00
2023-06-25T02:18:25.426Z,449.00
2023-06-25T02:19:25.430Z,450.00
2023-06-25T02:20:25.502Z,448.00
2023-06-25T02:21:25.569Z,446.00
2023-06-25T02:22:25.635Z,447.00
2023-06-25T02:23:25.661Z,447.00
2023-06-25T02:24:25.770Z,447.00
2023-06-25T02:25:25.834Z,447.00
2023-06-25T02:26:25.916Z,447.00
2023-06-25T02:27:25.951Z,447.00
2023-06-25T02:28:26.000Z,449.00
2023-06-25T02:29:26.061Z,450.00
2023-06-25T02:30:26.127Z,450.00
2023-06-25T02:31:26.255Z,449.00
2023-06-25T02:32:26.369Z,448.00
2023-06-25T02:33:26.339Z,448.00
2023-06-25T02:34:26.425Z,447.00
2023-06-25T02:35:26.434Z,449.00
2023-06-25T02:36:26.536Z,449.00
2023-06-25T02:37:26.584Z,449.00
2023-06-25T02:38:26.671Z,449.00
2023-06-25T02:39:26.706Z,447.00
2023-06-25T02:40:26.719Z,446.00
2023-06-25T02:41:26.832Z,447.00
2023-06-25T02:42:26.867Z,447.00
2023-06-25T02:43:26.869Z,447.00
2023-06-25T02:44:26.942Z,446.00
2023-06-25T02:45:27.125Z,442.00
2023-06-25T02:46:27.056Z,441.00
2023-06-25T02:47:27.183Z,441.00
2023-06-25T02:48:27.254Z,442.00
2023-06-25T02:49:27.400Z,442.00
2023-06-25T02:50:27.362Z,442.00
2023-06-25T02:51:27.382Z,441.00
2023-06-25T02:52:27.421Z,441.00
2023-06-25T02:53:27.504Z,443.00
2023-06-25T02:54:27.519Z,444.00
2023-06-25T02:55:27.572Z,443.00
2023-06-25T02:56:27.573Z,443.00
2023-06-25T02:57:27.682Z,443.00
2023-06-25T02:58:27.737Z,444.00
2023-06-25T02:59:27.726Z,445.00
2023-06-25T03:00:27.764Z,443.00
2023-06-25T03:01:27.789Z,444.00
2023-06-25T03:02:27.893Z,445.00
2023-06-25T03:03:27.886Z,445.00
2023-06-25T03:04:27.830Z,447.00
2023-06-25T03:05:27.857Z,450.00
2023-06-25T03:06:27.833Z,449.00
2023-06-25T03:07:27.887Z,449.00
2023-06-25T03:08:27.864Z,450.00
2023-06-25T03:09:27.823Z,449.00
2023-06-25T03:10:27.850Z,450.00
2023-06-25T03:11:27.827Z,452.00
2023-06-25T03:12:27.858Z,454.00
2023-06-25T03:13:27.869Z,454.00
2023-06-25T03:14:34.973Z,456.00
2023-06-25T03:15:28.842Z,454.00
2023-06-25T03:16:27.816Z,453.00
2023-06-25T03:17:27.872Z,453.00
2023-06-25T03:18:27.806Z,452.00
2023-06-25T03:19:27.792Z,450.00
2023-06-25T03:20:27.793Z,451.00
2023-06-25T03:21:27.807Z,451.00
2023-06-25T03:22:27.808Z,450.00
2023-06-25T03:23:27.816Z,450.00
2023-06-25T03:24:27.761Z,451.00
2023-06-25T03:25:27.768Z,450.00
2023-06-25T03:26:27.747Z,448.00
2023-06-25T03:27:27.765Z,446.00
2023-06-25T03:28:27.749Z,446.00
2023-06-25T03:29:27.756Z,445.00
2023-06-25T03:30:27.736Z,445.00
2023-06-25T03:31:27.802Z,447.00
2023-06-25T03:32:27.726Z,447.00
2023-06-25T03:33:27.739Z,448.00
2023-06-25T03:34:27.716Z,448.00
2023-06-25T03:35:27.692Z,447.00
2023-06-25T03:36:27.687Z,447.00
2023-06-25T03:37:27.664Z,447.00
2023-06-25T03:38:27.667Z,446.00
2023-06-25T03:39:27.662Z,448.00
2023-06-25T03:40:27.687Z,450.00
2023-06-25T03:41:27.644Z,452.00
2023-06-25T03:42:27.662Z,452.00
2023-06-25T03:43:27.669Z,452.00
2023-06-25T03:44:27.650Z,451.00
2023-06-25T03:45:27.665Z,451.00
2023-06-25T03:46:27.602Z,452.00
2023-06-25T03:47:27.714Z,454.00
2023-06-25T03:48:27.777Z,457.00
2023-06-25T03:49:27.610Z,454.00
2023-06-25T03:50:27.613Z,454.00
2023-06-25T03:51:27.603Z,453.00
2023-06-25T03:52:27.578Z,453.00
2023-06-25T03:53:27.598Z,452.00
2023-06-25T03:54:27.594Z,453.00
2023-06-25T03:55:27.656Z,451.00
2023-06-25T03:56:27.662Z,451.00
2023-06-25T03:57:27.647Z,451.00
2023-06-25T03:58:27.672Z,450.00
2023-06-25T03:59:27.708Z,454.00
2023-06-25T04:00:27.715Z,453.00
2023-06-25T04:01:27.784Z,452.00
2023-06-25T04:02:27.820Z,454.00
2023-06-25T04:03:27.801Z,453.00
2023-06-25T04:04:27.865Z,454.00
2023-06-25T04:05:27.822Z,453.00
2023-06-25T04:06:27.873Z,453.00
2023-06-25T04:07:27.937Z,452.00
2023-06-25T04:08:27.913Z,453.00
2023-06-25T04:09:27.905Z,453.00
2023-06-25T04:10:27.936Z,454.00
2023-06-25T04:11:27.921Z,456.00
2023-06-25T04:12:27.979Z,459.00
2023-06-25T04:13:28.003Z,459.00
2023-06-25T04:14:27.986Z,458.00
2023-06-25T04:15:28.031Z,457.00
2023-06-25T04:16:28.020Z,456.00
2023-06-25T04:17:28.051Z,457.00
2023-06-25T04:18:28.042Z,457.00
2023-06-25T04:19:29.951Z,461.00
2023-06-25T04:20:28.117Z,462.00
2023-06-25T04:21:28.128Z,462.00
2023-06-25T04:22:28.124Z,463.00
2023-06-25T04:23:28.216Z,464.00
2023-06-25T04:24:28.169Z,462.00
2023-06-25T04:25:28.204Z,463.00
2023-06-25T04:26:28.258Z,465.00
2023-06-25T04:27:28.265Z,465.00
2023-06-25T04:28:28.279Z,467.00
2023-06-25T04:29:28.277Z,468.00
2023-06-25T04:30:28.305Z,466.00
2023-06-25T04:31:28.378Z,464.00
2023-06-25T04:32:28.357Z,460.00
2023-06-25T04:33:28.404Z,458.00
2023-06-25T04:34:28.403Z,457.00
2023-06-25T04:35:30.710Z,457.00
2023-06-25T04:36:28.404Z,459.00
2023-06-25T04:37:28.404Z,458.00
2023-06-25T04:38:28.406Z,459.00
2023-06-25T04:39:28.403Z,459.00
2023-06-25T04:40:28.359Z,461.00
2023-06-25T04:41:28.387Z,461.00
2023-06-25T04:42:28.390Z,459.00
2023-06-25T04:43:28.376Z,459.00
2023-06-25T04:44:28.339Z,461.00
2023-06-25T04:45:28.329Z,462.00
2023-06-25T04:46:28.386Z,461.00
2023-06-25T04:47:28.342Z,460.00
2023-06-25T04:48:28.355Z,458.00
2023-06-25T04:49:28.332Z,457.00
2023-06-25T04:50:28.294Z,456.00
2023-06-25T04:51:28.322Z,456.00
2023-06-25T04:52:28.281Z,457.00
2023-06-25T04:53:28.292Z,458.00
2023-06-25T04:54:28.301Z,458.00
2023-06-25T04:55:28.253Z,458.00
2023-06-25T04:56:28.282Z,458.00
2023-06-25T04:57:28.245Z,458.00
2023-06-25T04:58:28.276Z,460.00
2023-06-25T04:59:28.261Z,464.00
2023-06-25T05:00:28.256Z,463.00
2023-06-25T05:01:28.270Z,462.00
2023-06-25T05:02:28.297Z,462.00
2023-06-25T05:03:28.273Z,463.00
2023-06-25T05:04:28.213Z,461.00
2023-06-25T05:05:28.201Z,459.00
2023-06-25T05:06:28.214Z,457.00
2023-06-25T05:07:28.256Z,458.00
2023-06-25T05:08:28.230Z,455.00
2023-06-25T05:09:28.183Z,453.00
2023-06-25T05:10:28.148Z,452.00
2023-06-25T05:11:28.187Z,454.00
2023-06-25T05:12:28.137Z,454.00
2023-06-25T05:13:28.188Z,453.00
2023-06-25T05:14:28.179Z,452.00
2023-06-25T05:15:28.112Z,451.00
2023-06-25T05:16:28.230Z,451.00
2023-06-25T05:17:28.197Z,449.00
2023-06-25T05:18:28.156Z,449.00
2023-06-25T05:19:28.146Z,449.00
2023-06-25T05:20:28.095Z,449.00
2023-06-25T05:21:28.121Z,447.00
2023-06-25T05:22:28.108Z,446.00
2023-06-25T05:23:28.098Z,445.00
2023-06-25T05:24:28.111Z,444.00
2023-06-25T05:25:28.112Z,444.00
2023-06-25T05:26:28.102Z,444.00
2023-06-25T05:27:28.107Z,444.00
2023-06-25T05:28:28.123Z,447.00
2023-06-25T05:29:28.119Z,448.00
2023-06-25T05:30:28.102Z,447.00
2023-06-25T05:31:28.167Z,450.00
2023-06-25T05:32:28.229Z,450.00
2023-06-25T05:33:28.207Z,451.00
2023-06-25T05:34:28.213Z,450.00
2023-06-25T05:35:28.195Z,450.00
2023-06-25T05:36:28.271Z,451.00
2023-06-25T05:37:28.249Z,450.00
2023-06-25T05:38:28.253Z,450.00
2023-06-25T05:39:28.274Z,449.00
2023-06-25T05:40:28.327Z,449.00
2023-06-25T05:41:28.352Z,449.00
2023-06-25T05:42:28.358Z,452.00
2023-06-25T05:43:28.381Z,453.00
2023-06-25T05:44:28.378Z,451.00
2023-06-25T05:45:28.434Z,449.00
2023-06-25T05:46:28.464Z,449.00
2023-06-25T05:47:28.419Z,449.00
2023-06-25T05:48:28.457Z,450.00
2023-06-25T05:49:28.433Z,448.00
2023-06-25T05:50:28.459Z,448.00
2023-06-25T05:51:28.469Z,449.00
2023-06-25T05:52:28.478Z,451.00
2023-06-25T05:53:28.526Z,451.00
2023-06-25T05:54:28.482Z,450.00
2023-06-25T05:55:28.494Z,452.00
2023-06-25T05:56:28.526Z,451.00
2023-06-25T05:57:28.567Z,449.00
2023-06-25T05:58:28.545Z,449.00
2023-06-25T05:59:28.567Z,446.00
2023-06-25T06:00:28.569Z,447.00
2023-06-25T06:01:28.652Z,446.00
2023-06-25T06:02:28.649Z,447.00
2023-06-25T06:03:28.627Z,449.00
2023-06-25T06:04:28.665Z,449.00
2023-06-25T06:05:28.635Z,449.00
2023-06-25T06:06:28.638Z,451.00
2023-06-25T06:07:28.777Z,450.00
2023-06-25T06:08:28.674Z,450.00
2023-06-25T06:09:28.688Z,449.00
2023-06-25T06:10:28.785Z,450.00
2023-06-25T06:11:28.726Z,451.00
2023-06-25T06:12:28.709Z,449.00
2023-06-25T06:13:28.730Z,449.00
2023-06-25T06:14:28.728Z,450.00
2023-06-25T06:15:28.733Z,449.00
2023-06-25T06:16:28.768Z,451.00
2023-06-25T06:17:28.776Z,450.00
2023-06-25T06:18:28.770Z,449.00
2023-06-25T06:19:28.719Z,448.00
2023-06-25T06:20:28.781Z,448.00
2023-06-25T06:21:28.808Z,447.00
2023-06-25T06:22:28.754Z,449.00
2023-06-25T06:23:28.774Z,449.00
2023-06-25T06:24:28.798Z,449.00
2023-06-25T06:25:28.707Z,449.00
2023-06-25T06:26:28.702Z,446.00
2023-06-25T06:27:28.735Z,446.00
2023-06-25T06:28:28.730Z,446.00
2023-06-25T06:29:28.744Z,443.00
2023-06-25T06:30:28.915Z,443.00
2023-06-25T06:31:28.887Z,443.00
2023-06-25T06:32:28.838Z,443.00
2023-06-25T06:33:28.868Z,445.00
2023-06-25T06:34:28.804Z,444.00
2023-06-25T06:35:28.817Z,443.00
2023-06-25T06:36:28.861Z,443.00
2023-06-25T06:37:28.915Z,446.00
2023-06-25T06:38:28.909Z,446.00
2023-06-25T06:39:28.894Z,445.00
2023-06-25T06:40:28.917Z,445.00
2023-06-25T06:41:28.976Z,445.00
2023-06-25T06:42:29.006Z,444.00
2023-06-25T06:43:29.053Z,445.00
2023-06-25T06:44:29.148Z,446.00
2023-06-25T06:45:29.197Z,445.00
2023-06-25T06:46:29.245Z,445.00
2023-06-25T06:47:29.367Z,447.00
2023-06-25T06:48:29.405Z,447.00
2023-06-25T06:49:29.470Z,446.00
2023-06-25T06:50:29.509Z,446.00
2023-06-25T06:51:29.577Z,444.00
2023-06-25T06:52:29.652Z,444.00
2023-06-25T06:53:29.755Z,443.00
2023-06-25T06:54:29.788Z,444.00
2023-06-25T06:55:29.821Z,444.00
2023-06-25T06:56:29.935Z,444.00
2023-06-25T06:57:30.030Z,444.00
2023-06-25T06:58:30.138Z,446.00
2023-06-25T06:59:30.195Z,444.00
2023-06-25T07:00:30.227Z,442.00
2023-06-25T07:01:30.314Z,443.00
2023-06-25T07:02:30.343Z,445.00
2023-06-25T07:03:30.420Z,444.00
2023-06-25T07:04:30.465Z,444.00
2023-06-25T07:05:30.531Z,444.00
2023-06-25T07:06:30.569Z,441.00
2023-06-25T07:07:30.687Z,440.00
2023-06-25T07:08:30.728Z,440.00
2023-06-25T07:09:30.768Z,438.00
2023-06-25T07:10:30.838Z,438.00
2023-06-25T07:11:30.889Z,438.00
2023-06-25T07:12:30.953Z,439.00
2023-06-25T07:13:31.018Z,437.00
2023-06-25T07:14:31.118Z,435.00
2023-06-25T07:15:31.133Z,435.00
2023-06-25T07:16:31.244Z,436.00
2023-06-25T07:17:31.249Z,435.00
2023-06-25T07:18:31.413Z,437.00
2023-06-25T07:19:31.405Z,438.00
2023-06-25T07:20:31.428Z,438.00
2023-06-25T07:21:31.536Z,436.00
2023-06-25T07:22:31.560Z,435.00
2023-06-25T07:23:31.636Z,432.00
2023-06-25T07:24:31.664Z,432.00
2023-06-25T07:25:31.767Z,432.00
2023-06-25T07:26:31.785Z,430.00
2023-06-25T07:27:31.807Z,427.00
2023-06-25T07:28:31.876Z,427.00
2023-06-25T07:29:31.962Z,430.00
2023-06-25T07:30:32.008Z,429.00
2023-06-25T07:31:32.107Z,431.00
2023-06-25T07:32:32.170Z,431.00
2023-06-25T07:33:32.202Z,433.00
2023-06-25T07:34:32.251Z,433.00
2023-06-25T07:35:32.301Z,434.00
2023-06-25T07:36:32.355Z,436.00
2023-06-25T07:37:32.412Z,434.00
2023-06-25T07:38:32.499Z,435.00
2023-06-25T07:39:32.536Z,436.00
2023-06-25T07:40:32.592Z,435.00
2023-06-25T07:41:32.654Z,436.00
2023-06-25T07:42:32.731Z,436.00
2023-06-25T07:43:32.788Z,434.00
2023-06-25T07:44:50.148Z,432.00
2023-06-25T07:45:33.866Z,433.00
2023-06-25T07:46:32.939Z,432.00
2023-06-25T07:47:32.870Z,432.00
2023-06-25T07:48:32.769Z,433.00
2023-06-25T07:49:32.778Z,435.00
2023-06-25T07:50:32.805Z,433.00
2023-06-25T07:51:32.773Z,433.00
2023-06-25T07:52:32.796Z,434.00
2023-06-25T07:53:32.751Z,435.00
2023-06-25T07:54:32.734Z,433.00
2023-06-25T07:55:32.757Z,434.00
2023-06-25T07:56:32.811Z,433.00
2023-06-25T07:57:32.875Z,433.00
2023-06-25T07:58:32.937Z,434.00
2023-06-25T07:59:46.939Z,434.00
2023-06-25T08:00:34.951Z,435.00
2023-06-25T08:01:32.956Z,436.00
2023-06-25T08:02:33.005Z,435.00
2023-06-25T08:03:33.007Z,435.00
2023-06-25T08:04:33.039Z,436.00
2023-06-25T08:05:32.933Z,432.00
2023-06-25T08:06:32.911Z,433.00
2023-06-25T08:07:34.432Z,431.00
2023-06-25T08:08:32.894Z,430.00
2023-06-25T08:09:32.885Z,430.00
2023-06-25T08:10:32.914Z,430.00
2023-06-25T08:11:32.921Z,430.00
2023-06-25T08:12:32.934Z,429.00
2023-06-25T08:13:32.950Z,429.00
2023-06-25T08:14:32.964Z,429.00
2023-06-25T08:15:33.003Z,429.00
2023-06-25T08:16:33.057Z,428.00
2023-06-25T08:17:33.132Z,430.00
2023-06-25T08:18:33.160Z,431.00
2023-06-25T08:19:33.189Z,430.00
2023-06-25T08:20:33.227Z,428.00
2023-06-25T08:21:33.257Z,426.00
2023-06-25T08:22:33.263Z,426.00
2023-06-25T08:23:33.347Z,426.00
2023-06-25T08:24:33.384Z,428.00
2023-06-25T08:25:33.389Z,431.00
2023-06-25T08:26:33.427Z,430.00
2023-06-25T08:27:33.473Z,431.00
2023-06-25T08:28:33.460Z,430.00
2023-06-25T08:29:33.505Z,430.00
2023-06-25T08:30:33.535Z,429.00
2023-06-25T08:31:33.716Z,430.00
2023-06-25T08:32:33.614Z,433.00
2023-06-25T08:33:33.639Z,431.00
2023-06-25T08:34:33.704Z,433.00
2023-06-25T08:35:33.660Z,431.00
2023-06-25T08:36:33.701Z,432.00
2023-06-25T08:37:33.696Z,433.00
2023-06-25T08:38:33.759Z,435.00
2023-06-25T08:39:33.788Z,435.00
2023-06-25T08:40:33.782Z,435.00
2023-06-25T08:41:33.824Z,434.00
2023-06-25T08:42:33.847Z,432.00
2023-06-25T08:43:33.833Z,429.00
2023-06-25T08:44:33.846Z,429.00
2023-06-25T08:45:33.860Z,428.00
2023-06-25T08:46:33.965Z,430.00
2023-06-25T08:47:33.895Z,434.00
2023-06-25T08:48:33.887Z,433.00
2023-06-25T08:49:33.880Z,434.00
2023-06-25T08:50:33.865Z,433.00
2023-06-25T08:51:33.896Z,431.00
2023-06-25T08:52:33.917Z,428.00
2023-06-25T08:53:33.924Z,429.00
2023-06-25T08:54:33.931Z,428.00
2023-06-25T08:55:33.932Z,427.00
2023-06-25T08:56:33.917Z,429.00
2023-06-25T08:57:33.930Z,431.00
2023-06-25T08:58:33.951Z,433.00
2023-06-25T08:59:33.899Z,433.00
2023-06-25T09:00:33.953Z,432.00
2023-06-25T09:01:33.929Z,433.00
2023-06-25T09:02:34.080Z,433.00
2023-06-25T09:03:33.977Z,430.00
2023-06-25T09:04:33.960Z,428.00
2023-06-25T09:05:33.955Z,427.00
2023-06-25T09:06:33.969Z,426.00
2023-06-25T09:07:33.969Z,425.00
2023-06-25T09:08:33.974Z,426.00
2023-06-25T09:09:33.949Z,428.00
2023-06-25T09:10:33.950Z,424.00
2023-06-25T09:11:33.920Z,425.00
2023-06-25T09:12:33.948Z,425.00
2023-06-25T09:13:33.953Z,424.00
2023-06-25T09:14:33.957Z,425.00
2023-06-25T09:15:33.951Z,422.00
2023-06-25T09:16:33.940Z,423.00
2023-06-25T09:17:34.043Z,427.00
2023-06-25T09:18:34.045Z,426.00
2023-06-25T09:19:34.035Z,426.00
2023-06-25T09:20:34.109Z,426.00
2023-06-25T09:21:34.161Z,422.00
2023-06-25T09:22:34.271Z,423.00
2023-06-25T09:23:34.268Z,425.00
2023-06-25T09:24:34.298Z,425.00
2023-06-25T09:25:34.392Z,425.00
2023-06-25T09:26:34.440Z,424.00
2023-06-25T09:27:34.564Z,423.00
2023-06-25T09:28:34.584Z,422.00
2023-06-25T09:29:34.619Z,422.00
2023-06-25T09:30:34.913Z,423.00
2023-06-25T09:31:34.738Z,423.00
2023-06-25T09:32:34.905Z,422.00
2023-06-25T09:33:34.849Z,423.00
2023-06-25T09:34:34.905Z,422.00
2023-06-25T09:35:34.960Z,421.00
2023-06-25T09:37:35.104Z,420.00
2023-06-25T09:38:35.144Z,420.00
2023-06-25T09:39:35.146Z,419.00
2023-06-25T09:40:35.426Z,418.00
2023-06-25T09:41:35.236Z,418.00
2023-06-25T09:42:35.320Z,418.00
2023-06-25T09:43:35.440Z,417.00
2023-06-25T09:44:35.432Z,416.00
2023-06-25T09:45:35.458Z,417.00
2023-06-25T09:46:35.625Z,419.00
2023-06-25T09:47:35.562Z,420.00
2023-06-25T09:48:35.571Z,420.00
2023-06-25T09:49:35.625Z,421.00
2023-06-25T09:50:35.926Z,418.00
2023-06-25T09:51:35.746Z,418.00
2023-06-25T09:52:35.807Z,420.00
2023-06-25T09:53:35.801Z,422.00
2023-06-25T09:54:35.854Z,423.00
2023-06-25T09:55:36.154Z,422.00
2023-06-25T09:56:35.918Z,421.00
2023-06-25T09:57:35.971Z,422.00
2023-06-25T09:58:36.054Z,422.00
2023-06-25T09:59:36.064Z,422.00
2023-06-25T10:00:36.120Z,421.00
2023-06-25T10:01:36.204Z,422.00
2023-06-25T10:02:36.289Z,422.00
2023-06-25T10:03:36.274Z,419.00
2023-06-25T10:04:36.306Z,419.00
2023-06-25T10:05:36.470Z,420.00
2023-06-25T10:06:36.336Z,421.00
2023-06-25T10:07:36.371Z,420.00
2023-06-25T10:08:36.435Z,417.00
2023-06-25T10:09:36.443Z,417.00
2023-06-25T10:10:36.759Z,417.00
2023-06-25T10:11:36.685Z,415.00
2023-06-25T10:12:36.523Z,416.00
2023-06-25T10:13:36.561Z,418.00
2023-06-25T10:14:36.589Z,418.00
2023-06-25T10:15:37.309Z,419.00
2023-06-25T10:16:39.387Z,419.00
2023-06-25T10:17:36.775Z,418.00
2023-06-25T10:18:36.720Z,419.00
2023-06-25T10:19:36.624Z,418.00
2023-06-25T10:20:36.715Z,419.00
2023-06-25T10:21:36.618Z,421.00
2023-06-25T10:22:36.626Z,420.00
2023-06-25T10:23:36.619Z,422.00
2023-06-25T10:24:36.582Z,424.00
2023-06-25T10:25:36.714Z,422.00
2023-06-25T10:26:36.601Z,423.00
2023-06-25T10:27:36.621Z,423.00
2023-06-25T10:28:36.575Z,423.00
2023-06-25T10:29:36.590Z,421.00
2023-06-25T10:30:36.594Z,421.00
2023-06-25T10:31:36.664Z,423.00
2023-06-25T10:32:36.615Z,424.00
2023-06-25T10:33:36.546Z,424.00
2023-06-25T10:34:36.554Z,426.00
2023-06-25T10:35:36.795Z,425.00
2023-06-25T10:36:36.512Z,423.00
2023-06-25T10:37:36.574Z,422.00
2023-06-25T10:38:36.513Z,421.00
2023-06-25T10:39:36.499Z,420.00
2023-06-25T10:40:36.469Z,421.00
2023-06-25T10:41:36.490Z,419.00
2023-06-25T10:42:36.534Z,420.00
2023-06-25T10:43:36.511Z,419.00
2023-06-25T10:44:36.476Z,418.00
2023-06-25T10:45:36.626Z,418.00
2023-06-25T10:46:36.632Z,418.00
2023-06-25T10:47:36.518Z,420.00
2023-06-25T10:48:36.482Z,419.00
2023-06-25T10:49:36.422Z,420.00
2023-06-25T10:50:36.428Z,418.00
2023-06-25T10:51:36.887Z,419.00
2023-06-25T10:52:36.417Z,416.00
2023-06-25T10:53:36.417Z,415.00
2023-06-25T10:54:36.381Z,414.00
2023-06-25T10:55:36.535Z,418.00
2023-06-25T10:56:36.435Z,417.00
2023-06-25T10:57:36.368Z,416.00
2023-06-25T10:58:36.387Z,417.00
2023-06-25T10:59:36.367Z,417.00
2023-06-25T11:00:36.374Z,417.00
2023-06-25T11:01:36.386Z,416.00
2023-06-25T11:02:36.406Z,416.00
2023-06-25T11:03:36.433Z,417.00
2023-06-25T11:04:36.338Z,417.00
2023-06-25T11:05:36.659Z,415.00
2023-06-25T11:06:36.320Z,415.00
2023-06-25T11:07:36.319Z,416.00
2023-06-25T11:08:36.302Z,414.00
2023-06-25T11:09:36.280Z,414.00
2023-06-25T11:10:36.288Z,413.00
2023-06-25T11:11:36.283Z,415.00
2023-06-25T11:12:36.266Z,413.00
2023-06-25T11:13:36.266Z,413.00
2023-06-25T11:14:36.281Z,413.00
2023-06-25T11:15:36.549Z,415.00
2023-06-25T11:16:36.242Z,415.00
2023-06-25T11:17:36.271Z,414.00
2023-06-25T11:18:36.248Z,414.00
2023-06-25T11:19:36.242Z,413.00
2023-06-25T11:20:36.399Z,413.00
2023-06-25T11:21:36.217Z,412.00
2023-06-25T11:22:36.224Z,413.00
2023-06-25T11:23:36.210Z,413.00
2023-06-25T11:24:36.216Z,412.00
2023-06-25T11:25:36.467Z,413.00
2023-06-25T11:26:36.190Z,413.00
2023-06-25T11:27:36.219Z,414.00
2023-06-25T11:28:36.157Z,416.00
2023-06-25T11:29:36.182Z,415.00
2023-06-25T11:30:36.183Z,414.00
2023-06-25T11:31:36.164Z,413.00
2023-06-25T11:32:36.173Z,417.00
2023-06-25T11:33:36.156Z,416.00
2023-06-25T11:34:36.134Z,417.00
2023-06-25T11:35:36.352Z,417.00
2023-06-25T11:36:36.133Z,419.00
2023-06-25T11:37:36.136Z,419.00
2023-06-25T11:38:36.175Z,420.00
2023-06-25T11:39:36.146Z,423.00
2023-06-25T11:40:36.156Z,424.00
2023-06-25T11:41:36.164Z,423.00
2023-06-25T11:42:36.198Z,423.00
2023-06-25T11:43:36.236Z,420.00
2023-06-25T11:44:36.194Z,416.00
2023-06-25T11:45:36.411Z,416.00
2023-06-25T11:46:36.239Z,418.00
2023-06-25T11:47:36.251Z,418.00
2023-06-25T11:48:36.262Z,420.00
2023-06-25T11:49:36.239Z,421.00
2023-06-25T11:50:36.233Z,421.00
2023-06-25T11:51:36.286Z,418.00
2023-06-25T11:52:36.251Z,418.00
2023-06-25T11:53:36.259Z,415.00
2023-06-25T11:54:36.256Z,413.00
2023-06-25T11:55:36.511Z,413.00
2023-06-25T11:56:36.258Z,413.00
2023-06-25T11:57:36.385Z,414.00
2023-06-25T11:58:36.327Z,414.00
2023-06-25T11:59:36.288Z,415.00
2023-06-25T12:00:36.283Z,415.00
2023-06-25T12:01:36.298Z,416.00
2023-06-25T12:02:49.087Z,417.00
2023-06-25T12:03:37.377Z,416.00
2023-06-25T12:04:36.379Z,414.00
2023-06-25T12:05:36.626Z,415.00
2023-06-25T12:06:36.297Z,414.00
2023-06-25T12:07:36.257Z,414.00
2023-06-25T12:08:36.294Z,411.00
2023-06-25T12:09:36.257Z,411.00
2023-06-25T12:10:36.266Z,413.00
2023-06-25T12:11:36.229Z,414.00
2023-06-25T12:12:36.247Z,415.00
2023-06-25T12:13:36.254Z,415.00
2023-06-25T12:14:36.216Z,415.00
2023-06-25T12:15:36.472Z,415.00
2023-06-25T12:16:36.238Z,418.00
2023-06-25T12:17:36.208Z,419.00
2023-06-25T12:18:36.197Z,418.00
2023-06-25T12:19:36.222Z,416.00
2023-06-25T12:20:36.168Z,414.00
2023-06-25T12:21:36.181Z,413.00
2023-06-25T12:22:36.177Z,414.00
2023-06-25T12:23:36.142Z,419.00
2023-06-25T12:24:36.195Z,418.00
2023-06-25T12:25:36.315Z,418.00
2023-06-25T12:26:36.153Z,417.00
2023-06-25T12:27:36.982Z,415.00
2023-06-25T12:28:36.116Z,415.00
2023-06-25T12:29:36.124Z,414.00